Latest Weather Observations for Grafton AgRS

IDN60801

Issued at 4:34 pm EDT Sunday 1 February 2015 (issued every 30 minutes, with the page automatically refreshed every 10 minutes)

About weather observations | Map of weather stations | Latest weather observations for NSW | Other Formats
Station Details ID: 058077 Name: GRAFTON RESEARCH STN Lat: -29.62 Lon: 152.96 Height: 25.0 m
Data from the previous 72 hours. | See also: Recent months for locations in New South Wales
Date/Time
EDT
Temp
°C
App
Temp
°C
Dew
Point
Rel
Hum
%
Delta-T
°C
Wind Press
QNH
hPa
Press
MSL
hPa
Rain
since 9 am
mm
Dir
 
Spd
km/h
Gust
km/h
Spd
kts
Gust
kts
01/04:30pm 28.8 28.9 20.0 59 5.8 E 19 28 10 15 - - 0.0
01/04:00pm 29.7 30.0 20.5 57 6.1 ESE 19 28 10 15 - - 0.0
01/03:30pm 29.9 30.6 20.5 57 6.2 ESE 17 26 9 14 - - 0.0
01/03:00pm 30.2 31.6 20.4 55 6.5 ESE 13 24 7 13 - - 0.0
01/02:30pm 30.4 31.9 21.2 58 6.2 SE 15 20 8 11 - - 0.0
01/02:00pm 30.9 33.6 20.2 53 7.1 S 6 9 3 5 - - 0.0
01/01:30pm 29.5 31.6 20.1 57 6.2 SE 9 13 5 7 - - 0.0
01/01:00pm 29.7 32.1 19.7 55 6.5 W 6 13 3 7 - - 0.0
01/12:30pm 29.4 32.2 20.8 60 5.7 W 7 11 4 6 - - 0.0
01/12:00pm 28.6 30.5 19.8 59 5.8 SSW 9 13 5 7 - - 0.0
01/11:30am 28.4 31.0 20.1 60 5.4 SSE 6 13 3 7 - - 0.0
01/11:00am 28.2 31.1 20.7 63 5.0 SSW 6 9 3 5 - - 0.0
01/10:30am 27.0 29.7 20.6 68 4.2 SW 7 13 4 7 - - 0.0
01/10:00am 26.4 28.7 20.7 71 3.8 SSW 9 13 5 7 - - 0.0
01/09:30am 25.4 28.3 21.1 77 2.8 SW 7 13 4 7 - - 0.0
01/09:00am 24.0 25.9 19.7 77 2.8 SW 9 13 5 7 - - 0.0
01/08:30am 23.9 25.7 19.6 77 2.8 SW 9 13 5 7 - - 0.0
01/08:00am 22.5 23.8 18.5 78 2.5 WSW 9 11 5 6 - - 0.0
01/07:30am 21.1 23.0 19.0 88 1.3 WSW 7 11 4 6 - - 0.0
01/07:00am 20.3 21.8 18.8 91 0.9 W 9 11 5 6 - - 0.0
01/06:30am 19.4 20.4 17.7 90 1.0 W 9 11 5 6 - - 0.0
01/06:00am 19.8 20.9 18.1 90 1.1 SW 9 11 5 6 - - 0.0
01/05:30am 20.2 21.1 18.3 89 1.2 SW 11 13 6 7 - - 0.0
01/05:00am 20.5 22.0 18.8 90 1.1 SW 9 13 5 7 - - 0.0
01/04:30am 21.1 23.3 19.2 89 1.2 SSW 6 7 3 4 - - 0.0
01/04:00am 21.5 23.7 19.6 89 1.2 SSW 7 11 4 6 - - 0.0
01/03:30am 21.6 23.1 19.7 89 1.2 SW 11 13 6 7 - - 0.0
01/03:00am 21.4 23.1 19.3 88 1.3 WSW 9 11 5 6 - - 0.0
01/02:30am 21.6 23.5 19.7 89 1.2 WSW 9 11 5 6 - - 0.0
01/02:00am 21.5 23.4 19.8 90 1.1 W 9 11 5 6 - - 0.0
01/01:30am 21.6 24.0 20.1 91 1.0 W 7 9 4 5 - - 0.0
01/01:00am 21.0 22.8 19.5 91 1.0 WSW 9 11 5 6 - - 0.0
01/12:30am 21.1 24.1 19.2 89 1.2 WNW 2 6 1 3 - - 0.0
01/12:00am 21.2 23.2 19.1 88 1.3 SW 7 9 4 5 - - 0.0
 
Date/Time
EDT
Temp
°C
App
Temp
°C
Dew
Point
Rel
Hum
%
Delta-T
°C
Wind Press
QNH
hPa
Press
MSL
hPa
Rain
since 9 am
mm
Dir
 
Spd
km/h
Gust
km/h
Spd
kts
Gust
kts
31/11:30pm 21.3 23.2 18.9 86 1.5 WSW 7 9 4 5 - - 0.0
31/11:00pm 21.0 22.4 17.8 82 2.0 WSW 7 9 4 5 - - 0.0
31/10:30pm 21.3 22.5 17.3 78 2.5 WSW 7 7 4 4 - - 0.0
31/10:00pm 21.0 21.9 17.6 81 2.1 SSW 9 11 5 6 - - 0.0
31/09:30pm 20.9 22.2 17.5 81 2.1 SSW 7 11 4 6 - - 0.0
31/09:00pm 21.7 23.1 17.7 78 2.5 SE 7 11 4 6 - - 0.0
31/08:30pm 22.7 23.0 17.8 74 3.0 E 13 19 7 10 - - 0.0
31/08:00pm 23.3 23.6 18.8 76 2.9 ESE 15 20 8 11 - - 0.0
31/07:30pm 24.1 24.5 19.0 73 3.2 ESE 15 20 8 11 - - 0.0
31/07:00pm 26.6 27.6 18.7 62 5.1 E 11 15 6 8 - - 0.0
31/06:30pm 27.2 28.1 19.3 62 5.1 ESE 13 19 7 10 - - 0.0
31/06:00pm 27.2 26.1 17.7 56 6.0 SE 20 24 11 13 - - 0.0
31/05:30pm 26.6 25.5 19.5 65 4.6 SE 24 30 13 16 - - 0.0
31/05:00pm 26.0 24.6 19.6 68 4.1 SE 26 35 14 19 - - 0.0
31/04:30pm 28.3 27.2 21.1 65 4.8 SE 28 37 15 20 - - 0.0
31/04:00pm 30.2 31.9 22.4 63 5.3 ENE 17 24 9 13 - - 0.0
31/03:30pm 29.9 31.6 21.0 59 5.9 ENE 13 22 7 12 - - 0.0
31/03:00pm 31.9 34.4 21.1 52 7.3 NE 9 15 5 8 - - 0.0
31/02:30pm 30.9 34.4 21.9 58 6.1 N 6 9 3 5 - - 0.0
31/02:00pm 30.7 33.6 21.8 59 6.0 ESE 9 13 5 7 - - 0.0
31/01:30pm 29.7 31.2 18.8 52 7.0 SE 9 15 5 8 - - 0.0
31/01:00pm 29.7 32.1 21.6 61 5.4 SSE 11 17 6 9 - - 0.0
31/12:30pm 29.4 32.5 21.1 61 5.5 NE 6 13 3 7 - - 0.0
31/12:00pm 29.0 32.0 22.0 66 4.7 NE 9 13 5 7 - - 0.0
31/11:30am 27.7 29.7 20.0 63 5.0 SSE 9 15 5 8 - - 0.0
31/11:00am 26.9 29.1 19.3 63 4.9 ESE 6 11 3 6 - - 0.0
31/10:30am 26.2 28.4 19.6 67 4.3 SE 7 9 4 5 - - 0.0
31/10:00am 25.5 28.2 20.3 73 3.4 SSW 6 7 3 4 - - 0.0
31/09:30am 24.1 26.1 20.0 78 2.7 SW 9 11 5 6 - - 0.0
31/09:00am 23.3 25.4 20.1 82 2.1 WSW 9 13 5 7 - - 0.0
31/08:30am 21.8 23.8 19.9 89 1.2 WNW 9 13 5 7 - - 0.0
31/08:00am 20.9 23.2 19.9 94 0.6 WNW 7 11 4 6 - - 0.0
31/07:30am 20.2 22.5 19.5 96 0.4 W 6 9 3 5 - - 0.0
31/07:00am 19.5 21.6 19.0 97 0.3 WNW 6 11 3 6 - - 0.0
31/06:30am 19.3 20.8 18.8 97 0.3 NW 9 11 5 6 - - 0.0
31/06:00am 19.4 21.5 18.9 97 0.3 WSW 6 9 3 5 - - 0.0
31/05:30am 19.4 21.3 18.9 97 0.3 W 7 11 4 6 - - 0.0
31/05:00am 19.4 22.2 18.9 97 0.3 W 2 7 1 4 - - 0.0
31/04:30am 19.4 22.2 18.9 97 0.3 WNW 2 7 1 4 - - 0.0
31/04:00am 19.3 21.3 18.8 97 0.3 NW 6 9 3 5 - - 0.0
31/03:30am 19.0 21.5 18.2 95 0.5 E 2 7 1 4 - - 0.0
31/03:00am 19.4 21.1 18.6 95 0.5 W 7 7 4 4 - - 0.0
31/02:30am 20.0 22.1 19.0 94 0.6 W 6 7 3 4 - - 0.0
31/02:00am 20.1 22.2 19.3 95 0.5 WNW 7 9 4 5 - - 0.0
31/01:30am 20.1 22.1 19.1 94 0.6 WNW 7 9 4 5 - - 0.0
31/01:00am 20.3 22.3 19.1 93 0.8 WSW 7 7 4 4 - - 0.0
31/12:30am 20.4 22.6 19.1 92 0.8 WSW 6 7 3 4 - - 0.0
31/12:00am 20.7 23.0 19.4 92 0.8 WSW 6 7 3 4 - - 0.0
 
Date/Time
EDT
Temp
°C
App
Temp
°C
Dew
Point
Rel
Hum
%
Delta-T
°C
Wind Press
QNH
hPa
Press
MSL
hPa
Rain
since 9 am
mm
Dir
 
Spd
km/h
Gust
km/h
Spd
kts
Gust
kts
30/11:30pm 20.9 24.3 19.4 91 1.0 CALM 0 0 0 0 - - 0.0
30/11:00pm 21.3 24.2 19.8 91 1.0 SW 4 6 2 3 - - 0.0
30/10:30pm 21.7 24.6 19.8 89 1.2 SSE 4 7 2 4 - - 0.0
30/10:00pm 21.8 24.1 19.9 89 1.2 ESE 7 9 4 5 - - 0.0
30/09:30pm 21.9 24.2 19.5 86 1.5 SSE 6 9 3 5 - - 0.0
30/09:00pm 22.1 24.3 19.5 85 1.7 SE 7 9 4 5 - - 0.0
30/08:30pm 22.8 25.1 19.8 83 1.9 ESE 7 11 4 6 - - 0.0
30/08:00pm 23.7 25.7 20.0 80 2.4 E 9 11 5 6 - - 0.0
30/07:30pm 25.6 28.5 19.9 70 3.7 ENE 4 11 2 6 - - 0.0
30/07:00pm 26.6 28.7 20.2 68 4.2 NE 9 19 5 10 - - 0.0
30/06:30pm 27.0 28.3 20.1 66 4.5 ENE 13 20 7 11 - - 0.0
30/06:00pm 27.5 28.3 19.8 63 5.0 NE 15 28 8 15 - - 0.0
30/05:30pm 28.2 29.4 20.0 61 5.4 ENE 13 20 7 11 - - 0.0
30/05:00pm 28.5 29.5 20.2 60 5.5 ENE 15 28 8 15 - - 0.0
30/04:30pm 28.1 29.5 20.4 63 5.1 NE 13 24 7 13 - - 0.0
30/04:00pm 27.7 28.9 19.0 59 5.6 NE 11 20 6 11 - - 0.0
30/03:30pm 29.0 29.4 18.1 51 7.0 NNE 13 22 7 12 - - 0.0
30/03:00pm 30.5 32.6 18.9 50 7.5 N 6 13 3 7 - - 0.0
30/02:30pm 29.3 31.1 19.6 56 6.3 NE 9 15 5 8 - - 0.0
30/02:00pm 29.0 30.5 19.0 54 6.5 NE 9 15 5 8 - - 0.0
30/01:30pm 28.5 29.2 18.0 53 6.7 N 11 17 6 9 - - 0.0
30/01:00pm 28.2 29.5 19.4 59 5.7 N 11 19 6 10 - - 0.0
30/12:30pm 27.5 28.3 17.4 54 6.4 N 9 19 5 10 - - 0.0
30/12:00pm 27.0 27.3 16.0 51 6.8 NE 9 15 5 8 - - 0.0
30/11:30am 26.3 26.2 16.0 53 6.3 N 11 19 6 10 - - 0.0
30/11:00am 25.7 26.0 16.0 55 5.9 NNE 9 15 5 8 - - 0.0
30/10:30am 25.3 25.7 16.2 57 5.6 NNE 9 17 5 9 - - 0.0
30/10:00am 24.1 24.2 14.5 55 5.7 NE 7 11 4 6 - - 0.0
30/09:30am 23.3 24.4 14.6 58 5.2 W 2 7 1 4 - - 0.0
30/09:00am 21.9 22.2 14.5 63 4.3 N 6 9 3 5 - - 0.0
30/08:30am 21.1 23.5 16.9 77 2.6 CALM 0 6 0 3 - - 0.0
30/08:00am 19.0 21.0 15.9 82 1.8 CALM 0 0 0 0 - - 0.0
30/07:30am 19.2 21.1 16.6 85 1.6 S 2 7 1 4 - - 0.0
30/07:00am 17.2 19.0 15.5 90 1.0 CALM 0 0 0 0 - - 0.0
30/06:30am 16.9 18.1 14.9 88 1.2 NW 2 6 1 3 - - 0.0
30/06:00am 17.5 18.0 15.5 88 1.2 NNW 7 9 4 5 - - 0.0
30/05:30am 17.6 17.7 13.9 79 2.1 WNW 6 7 3 4 - - 0.0
30/05:00am 17.4 17.3 13.3 77 2.3 W 6 7 3 4 - - 0.0
30/04:30am 17.4 17.2 13.1 76 2.4 WNW 6 6 3 3 - - 0.0
30/04:00am 18.1 18.8 13.4 74 2.7 SE 2 6 1 3 - - 0.0
30/03:30am 18.1 19.1 13.2 73 2.8 CALM 0 2 0 1 - - 0.0
30/03:00am 18.3 18.0 13.2 72 2.9 SSE 7 11 4 6 - - 0.0
30/02:30am 19.3 20.2 14.1 72 3.0 S 2 7 1 4 - - 0.0
30/02:00am 19.8 20.7 15.2 75 2.7 S 4 7 2 4 - - 0.0
30/01:30am 19.9 20.9 15.3 75 2.7 SE 4 6 2 3 - - 0.0
30/01:00am 20.0 20.9 16.0 78 2.4 SW 6 7 3 4 - - 0.0
30/12:30am 20.2 20.8 16.8 81 2.1 SSW 9 13 5 7 - - 0.0
30/12:00am 20.9 21.2 17.1 79 2.3 SSW 11 13 6 7 - - 0.0
 
Date/Time
EDT
Temp
°C
App
Temp
°C
Dew
Point
Rel
Hum
%
Delta-T
°C
Wind Press
QNH
hPa
Press
MSL
hPa
Rain
since 9 am
mm
Dir
 
Spd
km/h
Gust
km/h
Spd
kts
Gust
kts
29/11:30pm 21.0 22.1 17.2 79 2.3 WSW 7 9 4 5 - - 0.0
29/11:00pm 21.1 22.7 16.9 77 2.6 W 4 7 2 4 - - 0.0
29/10:30pm 21.3 22.7 17.3 78 2.5 SW 6 7 3 4 - - 0.0
29/10:00pm 21.3 22.7 17.3 78 2.5 WNW 6 7 3 4 - - 0.0
29/09:30pm 21.3 22.8 16.7 75 2.8 SSE 4 7 2 4 - - 0.0
29/09:00pm 21.4 22.3 16.6 74 2.9 SE 7 11 4 6 - - 0.0
29/08:30pm 21.9 21.5 16.2 70 3.4 SE 13 17 7 9 - - 0.0
29/08:00pm 22.2 21.8 16.2 69 3.6 SE 13 17 7 9 - - 0.0
29/07:30pm 22.5 20.9 16.1 67 3.9 SE 19 26 10 14 - - 0.0
29/07:00pm 23.0 21.9 16.3 66 4.1 SE 17 20 9 11 - - 0.0
29/06:30pm 23.5 22.2 16.8 66 4.1 ESE 19 28 10 15 - - 0.0
29/06:00pm 24.2 22.7 16.7 63 4.6 ESE 20 30 11 16 - - 0.0
29/05:30pm 24.6 23.2 16.6 61 4.9 ESE 19 26 10 14 - - 0.0
29/05:00pm 25.6 24.8 17.0 59 5.3 E 17 22 9 12 - - 0.0

Other Formats:

Comma delimited format used in spreadsheet applications
http://www.bom.gov.au/fwo/IDN60801/IDN60801.95571.axf

JavaScript Object Notation format (JSON) in row-major order
http://www.bom.gov.au/fwo/IDN60801/IDN60801.95571.json